sensor_id;sensor_type;location;lat;lon;timestamp;pressure;altitude;pressure_sealevel;temperature;humidity
70982;BME280;58640;51.320;9.456;2022-09-09T00:02:21;98843.97;;;14.09;87.84
70982;BME280;58640;51.320;9.456;2022-09-09T00:05:04;98834.78;;;14.17;87.30
70982;BME280;58640;51.320;9.456;2022-09-09T00:07:44;98839.19;;;14.05;87.98
70982;BME280;58640;51.320;9.456;2022-09-09T00:16:12;98840.03;;;14.12;87.61
70982;BME280;58640;51.320;9.456;2022-09-09T00:21:19;98832.75;;;13.99;87.96
70982;BME280;58640;51.320;9.456;2022-09-09T00:23:53;98838.78;;;14.01;88.31
70982;BME280;58640;51.320;9.456;2022-09-09T00:26:35;98831.94;;;13.99;88.25
70982;BME280;58640;51.320;9.456;2022-09-09T00:31:43;98839.59;;;14.15;86.99
70982;BME280;58640;51.320;9.456;2022-09-09T00:36:38;98831.06;;;14.18;86.53
70982;BME280;58640;51.320;9.456;2022-09-09T00:39:03;98826.47;;;14.25;86.11
70982;BME280;58640;51.320;9.456;2022-09-09T00:44:18;98819.41;;;14.17;86.37
70982;BME280;58640;51.320;9.456;2022-09-09T00:52:46;98823.56;;;14.20;86.28
70982;BME280;58640;51.320;9.456;2022-09-09T00:58:07;98814.81;;;14.18;86.32
70982;BME280;58640;51.320;9.456;2022-09-09T01:03:43;98824.38;;;14.27;86.00
70982;BME280;58640;51.320;9.456;2022-09-09T01:08:51;98824.59;;;14.25;86.54
70982;BME280;58640;51.320;9.456;2022-09-09T01:11:22;98826.88;;;14.28;86.57
70982;BME280;58640;51.320;9.456;2022-09-09T01:13:56;98829.00;;;14.26;86.84
70982;BME280;58640;51.320;9.456;2022-09-09T01:16:24;98832.06;;;14.30;86.57
70982;BME280;58640;51.320;9.456;2022-09-09T01:18:53;98825.19;;;14.40;86.50
70982;BME280;58640;51.320;9.456;2022-09-09T01:26:43;98829.84;;;14.64;85.33
70982;BME280;58640;51.320;9.456;2022-09-09T01:29:13;98830.06;;;14.63;85.41
70982;BME280;58640;51.320;9.456;2022-09-09T01:32:02;98828.63;;;14.54;86.60
70982;BME280;58640;51.320;9.456;2022-09-09T01:34:38;98828.41;;;14.55;85.92
70982;BME280;58640;51.320;9.456;2022-09-09T01:37:10;98833.28;;;14.47;86.55
70982;BME280;58640;51.320;9.456;2022-09-09T01:39:38;98819.16;;;14.38;87.27
70982;BME280;58640;51.320;9.456;2022-09-09T01:42:08;98823.50;;;14.39;87.01
70982;BME280;58640;51.320;9.456;2022-09-09T01:44:36;98821.41;;;14.41;87.06
70982;BME280;58640;51.320;9.456;2022-09-09T01:47:03;98817.88;;;14.41;87.20
70982;BME280;58640;51.320;9.456;2022-09-09T01:49:29;98816.88;;;14.35;87.34
70982;BME280;58640;51.320;9.456;2022-09-09T01:51:55;98827.47;;;14.37;87.06
70982;BME280;58640;51.320;9.456;2022-09-09T01:54:23;98823.03;;;14.49;86.31
70982;BME280;58640;51.320;9.456;2022-09-09T01:59:48;98816.16;;;14.53;85.95
70982;BME280;58640;51.320;9.456;2022-09-09T02:02:22;98819.97;;;14.45;86.58
70982;BME280;58640;51.320;9.456;2022-09-09T02:05:12;98818.19;;;14.64;85.48
70982;BME280;58640;51.320;9.456;2022-09-09T02:07:47;98827.19;;;14.58;85.49
70982;BME280;58640;51.320;9.456;2022-09-09T02:10:25;98833.88;;;14.42;86.44
70982;BME280;58640;51.320;9.456;2022-09-09T02:13:04;98834.09;;;14.41;86.50
70982;BME280;58640;51.320;9.456;2022-09-09T02:15:53;98833.94;;;14.36;87.12
70982;BME280;58640;51.320;9.456;2022-09-09T02:18:28;98822.31;;;14.29;87.28
70982;BME280;58640;51.320;9.456;2022-09-09T02:20:56;98825.81;;;14.36;86.94
70982;BME280;58640;51.320;9.456;2022-09-09T02:23:23;98830.19;;;14.37;86.67
70982;BME280;58640;51.320;9.456;2022-09-09T02:25:49;98829.59;;;14.28;87.18
70982;BME280;58640;51.320;9.456;2022-09-09T02:28:18;98825.63;;;14.31;87.03
70982;BME280;58640;51.320;9.456;2022-09-09T02:30:48;98830.84;;;14.26;87.49
70982;BME280;58640;51.320;9.456;2022-09-09T02:33:28;98836.66;;;14.23;87.82
70982;BME280;58640;51.320;9.456;2022-09-09T02:35:56;98822.72;;;14.26;87.63
70982;BME280;58640;51.320;9.456;2022-09-09T02:38:28;98832.28;;;14.22;88.19
70982;BME280;58640;51.320;9.456;2022-09-09T02:40:54;98831.06;;;14.24;88.01
70982;BME280;58640;51.320;9.456;2022-09-09T02:43:20;98828.13;;;14.19;88.61
70982;BME280;58640;51.320;9.456;2022-09-09T02:46:00;98827.50;;;14.24;88.29
70982;BME280;58640;51.320;9.456;2022-09-09T02:51:33;98836.22;;;14.39;87.41
70982;BME280;58640;51.320;9.456;2022-09-09T02:56:40;98832.47;;;14.33;87.96
70982;BME280;58640;51.320;9.456;2022-09-09T02:59:07;98833.09;;;14.35;87.61
70982;BME280;58640;51.320;9.456;2022-09-09T03:01:33;98841.84;;;14.37;87.25
70982;BME280;58640;51.320;9.456;2022-09-09T03:03:58;98826.59;;;14.43;86.89
70982;BME280;58640;51.320;9.456;2022-09-09T03:06:23;98828.91;;;14.39;87.62
70982;BME280;58640;51.320;9.456;2022-09-09T03:08:49;98835.41;;;14.32;87.95
70982;BME280;58640;51.320;9.456;2022-09-09T03:11:15;98837.47;;;14.36;87.65
70982;BME280;58640;51.320;9.456;2022-09-09T03:13:41;98840.38;;;14.35;87.81
70982;BME280;58640;51.320;9.456;2022-09-09T03:16:06;98839.34;;;14.36;87.41
70982;BME280;58640;51.320;9.456;2022-09-09T03:18:31;98826.66;;;14.30;87.84
70982;BME280;58640;51.320;9.456;2022-09-09T03:20:57;98839.53;;;14.34;87.48
70982;BME280;58640;51.320;9.456;2022-09-09T03:23:23;98838.31;;;14.30;87.60
70982;BME280;58640;51.320;9.456;2022-09-09T03:25:49;98832.69;;;14.32;87.35
70982;BME280;58640;51.320;9.456;2022-09-09T03:28:15;98838.13;;;14.25;88.01
70982;BME280;58640;51.320;9.456;2022-09-09T03:30:40;98835.84;;;14.29;87.68
70982;BME280;58640;51.320;9.456;2022-09-09T03:33:06;98829.16;;;14.25;88.27
70982;BME280;58640;51.320;9.456;2022-09-09T03:35:31;98831.25;;;14.29;87.95
70982;BME280;58640;51.320;9.456;2022-09-09T03:37:56;98832.25;;;14.35;87.43
70982;BME280;58640;51.320;9.456;2022-09-09T03:40:22;98828.34;;;14.31;87.77
70982;BME280;58640;51.320;9.456;2022-09-09T03:42:47;98825.81;;;14.36;87.37
70982;BME280;58640;51.320;9.456;2022-09-09T03:45:13;98828.53;;;14.36;87.79
70982;BME280;58640;51.320;9.456;2022-09-09T03:47:39;98830.81;;;14.39;87.96
70982;BME280;58640;51.320;9.456;2022-09-09T03:50:06;98825.59;;;14.44;87.58
70982;BME280;58640;51.320;9.456;2022-09-09T03:52:38;98820.56;;;14.41;88.46
70982;BME280;58640;51.320;9.456;2022-09-09T03:55:04;98826.78;;;14.54;87.03
70982;BME280;58640;51.320;9.456;2022-09-09T03:57:31;98818.47;;;14.49;87.40
70982;BME280;58640;51.320;9.456;2022-09-09T03:59:57;98821.81;;;14.45;87.84
70982;BME280;58640;51.320;9.456;2022-09-09T04:02:23;98812.25;;;14.42;87.94
70982;BME280;58640;51.320;9.456;2022-09-09T04:04:48;98813.88;;;14.56;86.65
70982;BME280;58640;51.320;9.456;2022-09-09T04:07:14;98810.97;;;14.51;87.27
70982;BME280;58640;51.320;9.456;2022-09-09T04:09:39;98807.41;;;14.51;87.47
70982;BME280;58640;51.320;9.456;2022-09-09T04:12:05;98805.38;;;14.46;88.12
70982;BME280;58640;51.320;9.456;2022-09-09T04:14:31;98802.84;;;14.51;87.47
70982;BME280;58640;51.320;9.456;2022-09-09T04:16:57;98807.63;;;14.49;87.61
70982;BME280;58640;51.320;9.456;2022-09-09T04:19:23;98811.59;;;14.53;87.36
70982;BME280;58640;51.320;9.456;2022-09-09T04:21:48;98805.56;;;14.51;87.21
70982;BME280;58640;51.320;9.456;2022-09-09T04:24:17;98813.41;;;14.66;86.55
70982;BME280;58640;51.320;9.456;2022-09-09T04:26:42;98807.34;;;14.64;86.21
70982;BME280;58640;51.320;9.456;2022-09-09T04:29:07;98815.28;;;14.59;86.15
70982;BME280;58640;51.320;9.456;2022-09-09T04:31:33;98811.53;;;14.60;86.16
70982;BME280;58640;51.320;9.456;2022-09-09T04:33:59;98815.09;;;14.54;86.43
70982;BME280;58640;51.320;9.456;2022-09-09T04:36:30;98814.88;;;14.55;86.33
70982;BME280;58640;51.320;9.456;2022-09-09T04:38:55;98811.72;;;14.65;85.70
70982;BME280;58640;51.320;9.456;2022-09-09T04:41:20;98814.09;;;14.55;86.15
70982;BME280;58640;51.320;9.456;2022-09-09T04:43:46;98815.50;;;14.57;86.20
70982;BME280;58640;51.320;9.456;2022-09-09T04:46:11;98820.66;;;14.65;85.21
70982;BME280;58640;51.320;9.456;2022-09-09T04:48:37;98827.00;;;14.53;86.00
70982;BME280;58640;51.320;9.456;2022-09-09T04:51:04;98830.13;;;14.50;86.19
70982;BME280;58640;51.320;9.456;2022-09-09T04:53:31;98829.69;;;14.53;86.17
70982;BME280;58640;51.320;9.456;2022-09-09T04:56:07;98826.78;;;14.54;85.61
70982;BME280;58640;51.320;9.456;2022-09-09T04:58:33;98828.00;;;14.52;85.94
70982;BME280;58640;51.320;9.456;2022-09-09T05:01:05;98833.03;;;14.55;85.71
70982;BME280;58640;51.320;9.456;2022-09-09T05:03:30;98831.97;;;14.56;85.63
70982;BME280;58640;51.320;9.456;2022-09-09T05:06:03;98829.25;;;14.56;85.73
70982;BME280;58640;51.320;9.456;2022-09-09T05:08:29;98827.41;;;14.56;85.72
70982;BME280;58640;51.320;9.456;2022-09-09T05:10:54;98831.16;;;14.49;86.01
70982;BME280;58640;51.320;9.456;2022-09-09T05:13:20;98825.94;;;14.54;85.65
70982;BME280;58640;51.320;9.456;2022-09-09T05:15:53;98824.44;;;14.64;84.89
70982;BME280;58640;51.320;9.456;2022-09-09T05:18:18;98827.56;;;14.61;85.15
70982;BME280;58640;51.320;9.456;2022-09-09T05:20:44;98823.16;;;14.67;85.03
70982;BME280;58640;51.320;9.456;2022-09-09T05:23:09;98825.22;;;14.72;85.06
70982;BME280;58640;51.320;9.456;2022-09-09T05:25:38;98831.69;;;14.71;85.15
70982;BME280;58640;51.320;9.456;2022-09-09T05:28:05;98836.81;;;15.16;82.28
70982;BME280;58640;51.320;9.456;2022-09-09T05:30:32;98836.94;;;14.97;83.34
70982;BME280;58640;51.320;9.456;2022-09-09T05:32:57;98842.53;;;15.02;83.25
70982;BME280;58640;51.320;9.456;2022-09-09T05:35:23;98842.34;;;14.97;83.04
70982;BME280;58640;51.320;9.456;2022-09-09T05:37:48;98850.28;;;14.98;83.24
70982;BME280;58640;51.320;9.456;2022-09-09T05:40:14;98842.19;;;14.92;83.09
70982;BME280;58640;51.320;9.456;2022-09-09T05:42:40;98850.59;;;14.77;84.43
70982;BME280;58640;51.320;9.456;2022-09-09T05:45:07;98852.41;;;14.90;83.99
70982;BME280;58640;51.320;9.456;2022-09-09T05:47:33;98854.94;;;14.85;84.44
70982;BME280;58640;51.320;9.456;2022-09-09T05:49:58;98859.06;;;14.87;84.41
70982;BME280;58640;51.320;9.456;2022-09-09T05:52:24;98857.81;;;14.90;84.28
70982;BME280;58640;51.320;9.456;2022-09-09T05:54:50;98862.56;;;14.94;84.31
70982;BME280;58640;51.320;9.456;2022-09-09T05:57:16;98858.81;;;14.95;84.09
70982;BME280;58640;51.320;9.456;2022-09-09T05:59:42;98856.25;;;15.07;83.40
70982;BME280;58640;51.320;9.456;2022-09-09T06:02:08;98860.22;;;15.04;83.88
70982;BME280;58640;51.320;9.456;2022-09-09T06:04:34;98865.22;;;15.07;83.87
70982;BME280;58640;51.320;9.456;2022-09-09T06:06:59;98868.53;;;15.09;83.71
70982;BME280;58640;51.320;9.456;2022-09-09T06:09:24;98862.97;;;15.29;83.21
70982;BME280;58640;51.320;9.456;2022-09-09T06:11:50;98859.00;;;15.31;82.51
70982;BME280;58640;51.320;9.456;2022-09-09T06:14:15;98855.63;;;15.42;82.39
70982;BME280;58640;51.320;9.456;2022-09-09T06:16:43;98847.47;;;15.42;82.81
70982;BME280;58640;51.320;9.456;2022-09-09T06:19:09;98845.13;;;15.52;82.30
70982;BME280;58640;51.320;9.456;2022-09-09T06:21:36;98853.22;;;15.77;80.34
70982;BME280;58640;51.320;9.456;2022-09-09T06:24:06;98854.13;;;15.71;81.49
70982;BME280;58640;51.320;9.456;2022-09-09T06:26:34;98859.47;;;15.77;81.26
70982;BME280;58640;51.320;9.456;2022-09-09T06:29:00;98854.00;;;15.84;81.17
70982;BME280;58640;51.320;9.456;2022-09-09T06:31:29;98861.06;;;15.85;80.97
70982;BME280;58640;51.320;9.456;2022-09-09T06:33:56;98854.50;;;15.92;80.75
70982;BME280;58640;51.320;9.456;2022-09-09T06:36:23;98861.16;;;15.96;80.42
70982;BME280;58640;51.320;9.456;2022-09-09T06:38:49;98851.44;;;16.07;79.62
70982;BME280;58640;51.320;9.456;2022-09-09T06:41:16;98850.13;;;16.16;79.44
70982;BME280;58640;51.320;9.456;2022-09-09T06:43:43;98858.69;;;16.31;79.25
70982;BME280;58640;51.320;9.456;2022-09-09T06:46:18;98851.63;;;16.66;77.62
70982;BME280;58640;51.320;9.456;2022-09-09T06:48:44;98855.41;;;16.65;77.46
70982;BME280;58640;51.320;9.456;2022-09-09T06:51:12;98843.91;;;16.81;76.50
70982;BME280;58640;51.320;9.456;2022-09-09T06:53:39;98863.31;;;16.96;76.08
70982;BME280;58640;51.320;9.456;2022-09-09T06:58:40;98867.66;;;16.86;76.53
70982;BME280;58640;51.320;9.456;2022-09-09T07:01:16;98867.88;;;17.02;76.17
70982;BME280;58640;51.320;9.456;2022-09-09T07:03:45;98868.00;;;17.19;75.90
70982;BME280;58640;51.320;9.456;2022-09-09T07:06:15;98880.47;;;17.38;75.51
70982;BME280;58640;51.320;9.456;2022-09-09T07:08:48;98877.50;;;17.58;73.37
70982;BME280;58640;51.320;9.456;2022-09-09T07:11:14;98873.22;;;17.62;72.70
70982;BME280;58640;51.320;9.456;2022-09-09T07:13:39;98885.44;;;17.94;71.77
70982;BME280;58640;51.320;9.456;2022-09-09T07:16:06;98883.91;;;18.21;70.09
70982;BME280;58640;51.320;9.456;2022-09-09T07:18:32;98879.88;;;17.89;70.67
70982;BME280;58640;51.320;9.456;2022-09-09T07:20:58;98884.84;;;18.03;70.79
70982;BME280;58640;51.320;9.456;2022-09-09T07:23:24;98895.75;;;18.15;70.27
70982;BME280;58640;51.320;9.456;2022-09-09T07:25:50;98899.41;;;17.86;70.51
70982;BME280;58640;51.320;9.456;2022-09-09T07:28:16;98910.84;;;17.76;70.57
70982;BME280;58640;51.320;9.456;2022-09-09T07:30:42;98900.47;;;17.85;70.83
70982;BME280;58640;51.320;9.456;2022-09-09T07:33:08;98905.81;;;18.37;69.29
70982;BME280;58640;51.320;9.456;2022-09-09T07:35:35;98898.94;;;18.46;67.92
70982;BME280;58640;51.320;9.456;2022-09-09T07:38:02;98896.44;;;18.68;68.02
70982;BME280;58640;51.320;9.456;2022-09-09T07:40:29;98893.78;;;19.41;65.42
70982;BME280;58640;51.320;9.456;2022-09-09T07:42:55;98891.97;;;19.30;65.00
70982;BME280;58640;51.320;9.456;2022-09-09T07:45:21;98890.03;;;19.02;66.03
70982;BME280;58640;51.320;9.456;2022-09-09T07:47:46;98896.69;;;18.55;67.70
70982;BME280;58640;51.320;9.456;2022-09-09T07:50:13;98899.19;;;18.96;66.77
70982;BME280;58640;51.320;9.456;2022-09-09T07:52:38;98902.72;;;19.36;65.96
70982;BME280;58640;51.320;9.456;2022-09-09T07:55:04;98901.16;;;19.01;66.03
70982;BME280;58640;51.320;9.456;2022-09-09T07:57:29;98898.66;;;19.11;66.05
70982;BME280;58640;51.320;9.456;2022-09-09T07:59:56;98889.47;;;19.00;66.59
70982;BME280;58640;51.320;9.456;2022-09-09T08:02:22;98898.44;;;18.72;67.07
70982;BME280;58640;51.320;9.456;2022-09-09T08:04:48;98904.13;;;18.71;67.17
70982;BME280;58640;51.320;9.456;2022-09-09T08:07:14;98899.41;;;18.55;67.80
70982;BME280;58640;51.320;9.456;2022-09-09T08:09:39;98904.63;;;18.10;69.31
70982;BME280;58640;51.320;9.456;2022-09-09T08:12:05;98914.69;;;18.21;69.70
70982;BME280;58640;51.320;9.456;2022-09-09T08:14:31;98904.84;;;18.66;68.70
70982;BME280;58640;51.320;9.456;2022-09-09T08:16:57;98899.34;;;19.18;66.89
70982;BME280;58640;51.320;9.456;2022-09-09T08:19:23;98905.22;;;19.26;66.54
70982;BME280;58640;51.320;9.456;2022-09-09T08:21:48;98906.53;;;19.52;65.50
70982;BME280;58640;51.320;9.456;2022-09-09T08:24:14;98903.81;;;19.52;64.83
70982;BME280;58640;51.320;9.456;2022-09-09T08:26:44;98900.09;;;19.41;64.75
70982;BME280;58640;51.320;9.456;2022-09-09T08:29:11;98901.22;;;19.29;66.05
70982;BME280;58640;51.320;9.456;2022-09-09T08:31:39;98903.34;;;19.71;64.67
70982;BME280;58640;51.320;9.456;2022-09-09T08:34:06;98908.16;;;19.81;64.04
70982;BME280;58640;51.320;9.456;2022-09-09T08:36:35;98903.53;;;20.14;62.58
70982;BME280;58640;51.320;9.456;2022-09-09T08:39:02;98916.53;;;20.62;61.85
70982;BME280;58640;51.320;9.456;2022-09-09T08:52:29;98922.94;;;21.64;58.28
70982;BME280;58640;51.320;9.456;2022-09-09T08:55:05;98906.34;;;21.17;58.42
70982;BME280;58640;51.320;9.456;2022-09-09T08:57:38;98913.19;;;20.98;59.70
70982;BME280;58640;51.320;9.456;2022-09-09T09:00:04;98924.69;;;21.00;59.70
70982;BME280;58640;51.320;9.456;2022-09-09T09:02:46;98924.50;;;21.07;58.94
70982;BME280;58640;51.320;9.456;2022-09-09T09:05:23;98924.06;;;21.15;57.39
70982;BME280;58640;51.320;9.456;2022-09-09T09:08:20;98918.06;;;21.39;56.93
70982;BME280;58640;51.320;9.456;2022-09-09T09:10:51;98921.66;;;21.45;57.31
70982;BME280;58640;51.320;9.456;2022-09-09T09:13:40;98918.81;;;21.88;56.67
70982;BME280;58640;51.320;9.456;2022-09-09T09:16:34;98920.13;;;22.12;56.86
70982;BME280;58640;51.320;9.456;2022-09-09T09:19:02;98928.63;;;22.16;56.05
70982;BME280;58640;51.320;9.456;2022-09-09T09:24:10;98910.44;;;22.78;53.73
70982;BME280;58640;51.320;9.456;2022-09-09T09:26:46;98908.25;;;22.85;53.33
70982;BME280;58640;51.320;9.456;2022-09-09T09:29:19;98920.50;;;22.62;52.37
70982;BME280;58640;51.320;9.456;2022-09-09T09:31:55;98914.78;;;22.32;53.38
70982;BME280;58640;51.320;9.456;2022-09-09T09:34:22;98912.81;;;21.91;55.46
70982;BME280;58640;51.320;9.456;2022-09-09T09:36:56;98917.22;;;21.39;55.62
70982;BME280;58640;51.320;9.456;2022-09-09T09:41:52;98908.81;;;20.97;56.70
70982;BME280;58640;51.320;9.456;2022-09-09T09:44:25;98904.25;;;21.29;55.49
70982;BME280;58640;51.320;9.456;2022-09-09T09:46:51;98906.16;;;21.29;55.69
70982;BME280;58640;51.320;9.456;2022-09-09T09:49:16;98912.66;;;21.44;54.98
70982;BME280;58640;51.320;9.456;2022-09-09T09:51:42;98908.72;;;21.62;53.91
70982;BME280;58640;51.320;9.456;2022-09-09T09:56:40;98899.31;;;22.11;53.25
70982;BME280;58640;51.320;9.456;2022-09-09T09:59:20;98898.59;;;22.26;53.18
70982;BME280;58640;51.320;9.456;2022-09-09T10:01:45;98899.31;;;22.11;53.86
70982;BME280;58640;51.320;9.456;2022-09-09T10:04:21;98910.75;;;21.50;53.80
70982;BME280;58640;51.320;9.456;2022-09-09T10:06:48;98905.03;;;21.51;54.58
70982;BME280;58640;51.320;9.456;2022-09-09T10:09:28;98899.31;;;21.26;54.26
70982;BME280;58640;51.320;9.456;2022-09-09T10:15:07;98896.66;;;21.10;55.33
70982;BME280;58640;51.320;9.456;2022-09-09T10:20:49;98896.56;;;21.53;55.52
70982;BME280;58640;51.320;9.456;2022-09-09T10:26:07;98889.22;;;22.22;52.86
70982;BME280;58640;51.320;9.456;2022-09-09T10:31:19;98887.53;;;22.52;51.24
70982;BME280;58640;51.320;9.456;2022-09-09T10:33:56;98887.47;;;22.47;51.51
70982;BME280;58640;51.320;9.456;2022-09-09T10:36:29;98882.22;;;21.99;52.40
70982;BME280;58640;51.320;9.456;2022-09-09T10:39:03;98887.34;;;21.64;53.06
70982;BME280;58640;51.320;9.456;2022-09-09T10:44:40;98884.47;;;21.22;54.74
70982;BME280;58640;51.320;9.456;2022-09-09T10:52:57;98875.28;;;20.64;59.07
70982;BME280;58640;51.320;9.456;2022-09-09T10:55:25;98871.78;;;20.68;59.36
70982;BME280;58640;51.320;9.456;2022-09-09T10:57:54;98866.97;;;20.75;61.90
70982;BME280;58640;51.320;9.456;2022-09-09T11:00:29;98870.19;;;20.72;61.35
70982;BME280;58640;51.320;9.456;2022-09-09T11:02:58;98864.09;;;20.87;61.54
70982;BME280;58640;51.320;9.456;2022-09-09T11:05:38;98862.22;;;20.92;61.78
70982;BME280;58640;51.320;9.456;2022-09-09T11:08:25;98862.25;;;21.14;57.88
70982;BME280;58640;51.320;9.456;2022-09-09T11:11:19;98866.44;;;21.21;58.37
70982;BME280;58640;51.320;9.456;2022-09-09T11:14:05;98859.97;;;21.06;57.37
70982;BME280;58640;51.320;9.456;2022-09-09T11:16:41;98869.44;;;20.98;57.04
70982;BME280;58640;51.320;9.456;2022-09-09T11:21:47;98862.91;;;20.99;57.36
70982;BME280;58640;51.320;9.456;2022-09-09T11:27:21;98853.16;;;21.08;55.79
70982;BME280;58640;51.320;9.456;2022-09-09T11:30:20;98854.56;;;21.11;55.45
70982;BME280;58640;51.320;9.456;2022-09-09T11:33:20;98859.00;;;21.17;55.73
70982;BME280;58640;51.320;9.456;2022-09-09T11:38:46;98849.91;;;21.11;52.70
70982;BME280;58640;51.320;9.456;2022-09-09T11:41:14;98854.25;;;21.07;52.58
70982;BME280;58640;51.320;9.456;2022-09-09T11:43:45;98862.72;;;21.06;53.14
70982;BME280;58640;51.320;9.456;2022-09-09T11:46:14;98846.78;;;20.81;53.01
70982;BME280;58640;51.320;9.456;2022-09-09T11:48:44;98855.19;;;20.75;53.23
70982;BME280;58640;51.320;9.456;2022-09-09T11:51:28;98864.22;;;20.75;53.91
70982;BME280;58640;51.320;9.456;2022-09-09T11:53:56;98847.00;;;20.75;54.03
70982;BME280;58640;51.320;9.456;2022-09-09T11:56:41;98846.50;;;20.99;55.29
70982;BME280;58640;51.320;9.456;2022-09-09T11:59:24;98856.25;;;21.17;54.95
70982;BME280;58640;51.320;9.456;2022-09-09T12:02:14;98857.03;;;21.12;55.10
70982;BME280;58640;51.320;9.456;2022-09-09T12:12:37;98865.09;;;20.81;54.41
70982;BME280;58640;51.320;9.456;2022-09-09T12:17:43;98876.34;;;20.41;55.67
70982;BME280;58640;51.320;9.456;2022-09-09T12:23:08;98875.16;;;20.15;57.39
70982;BME280;58640;51.320;9.456;2022-09-09T12:25:48;98876.06;;;19.88;55.98
70982;BME280;58640;51.320;9.456;2022-09-09T12:28:15;98890.94;;;20.13;55.66
70982;BME280;58640;51.320;9.456;2022-09-09T12:31:12;98892.28;;;19.94;56.87
70982;BME280;58640;51.320;9.456;2022-09-09T12:33:43;98885.56;;;19.85;57.83
70982;BME280;58640;51.320;9.456;2022-09-09T12:36:14;98885.06;;;19.88;58.46
70982;BME280;58640;51.320;9.456;2022-09-09T12:38:41;98889.22;;;19.91;58.08
70982;BME280;58640;51.320;9.456;2022-09-09T12:41:22;98880.84;;;19.81;58.11
70982;BME280;58640;51.320;9.456;2022-09-09T12:43:48;98883.00;;;19.95;57.59
70982;BME280;58640;51.320;9.456;2022-09-09T12:48:47;98871.84;;;19.80;56.43
70982;BME280;58640;51.320;9.456;2022-09-09T12:51:32;98873.50;;;19.81;53.38
70982;BME280;58640;51.320;9.456;2022-09-09T12:53:59;98871.34;;;19.67;53.30
70982;BME280;58640;51.320;9.456;2022-09-09T12:56:28;98874.47;;;19.75;52.37
70982;BME280;58640;51.320;9.456;2022-09-09T12:58:56;98874.31;;;19.65;52.87
70982;BME280;58640;51.320;9.456;2022-09-09T13:01:30;98867.28;;;19.86;51.68
70982;BME280;58640;51.320;9.456;2022-09-09T13:03:56;98864.09;;;20.10;48.49
70982;BME280;58640;51.320;9.456;2022-09-09T13:06:27;98862.56;;;20.14;49.33
70982;BME280;58640;51.320;9.456;2022-09-09T13:08:55;98858.06;;;20.25;49.38
70982;BME280;58640;51.320;9.456;2022-09-09T13:11:33;98854.91;;;20.33;50.74
70982;BME280;58640;51.320;9.456;2022-09-09T13:14:00;98844.31;;;20.37;51.29
70982;BME280;58640;51.320;9.456;2022-09-09T13:16:29;98840.00;;;20.41;50.16
70982;BME280;58640;51.320;9.456;2022-09-09T13:18:57;98834.13;;;20.49;51.02
70982;BME280;58640;51.320;9.456;2022-09-09T13:21:34;98834.72;;;20.56;51.01
70982;BME280;58640;51.320;9.456;2022-09-09T13:24:00;98837.97;;;20.53;51.53
70982;BME280;58640;51.320;9.456;2022-09-09T13:26:28;98840.97;;;20.51;51.41
70982;BME280;58640;51.320;9.456;2022-09-09T13:28:55;98842.22;;;20.65;51.07
70982;BME280;58640;51.320;9.456;2022-09-09T13:31:35;98841.78;;;20.73;51.18
70982;BME280;58640;51.320;9.456;2022-09-09T13:34:14;98840.81;;;20.84;51.29
70982;BME280;58640;51.320;9.456;2022-09-09T13:36:50;98834.84;;;20.87;51.14
70982;BME280;58640;51.320;9.456;2022-09-09T13:39:17;98837.22;;;20.57;52.06
70982;BME280;58640;51.320;9.456;2022-09-09T13:41:45;98833.16;;;20.60;51.89
70982;BME280;58640;51.320;9.456;2022-09-09T13:44:23;98833.66;;;20.57;53.06
70982;BME280;58640;51.320;9.456;2022-09-09T13:47:00;98845.34;;;20.52;53.43
70982;BME280;58640;51.320;9.456;2022-09-09T13:49:28;98843.91;;;20.66;54.09
70982;BME280;58640;51.320;9.456;2022-09-09T13:52:04;98829.34;;;20.61;52.56
70982;BME280;58640;51.320;9.456;2022-09-09T13:54:32;98827.97;;;20.63;53.08
70982;BME280;58640;51.320;9.456;2022-09-09T13:56:58;98817.38;;;20.67;50.92
70982;BME280;58640;51.320;9.456;2022-09-09T13:59:23;98825.03;;;20.65;50.74
70982;BME280;58640;51.320;9.456;2022-09-09T14:01:49;98817.88;;;20.64;50.20
70982;BME280;58640;51.320;9.456;2022-09-09T14:04:17;98811.38;;;20.70;50.11
70982;BME280;58640;51.320;9.456;2022-09-09T14:06:43;98810.88;;;20.73;50.45
70982;BME280;58640;51.320;9.456;2022-09-09T14:09:18;98819.84;;;20.68;50.27
70982;BME280;58640;51.320;9.456;2022-09-09T14:11:44;98825.47;;;20.57;51.63
70982;BME280;58640;51.320;9.456;2022-09-09T14:14:11;98823.09;;;20.65;50.91
70982;BME280;58640;51.320;9.456;2022-09-09T14:16:36;98825.63;;;20.72;50.93
70982;BME280;58640;51.320;9.456;2022-09-09T14:19:03;98820.56;;;20.59;51.34
70982;BME280;58640;51.320;9.456;2022-09-09T14:21:28;98824.13;;;20.59;51.57
70982;BME280;58640;51.320;9.456;2022-09-09T14:23:54;98822.22;;;20.60;51.93
70982;BME280;58640;51.320;9.456;2022-09-09T14:26:20;98814.31;;;20.63;52.44
70982;BME280;58640;51.320;9.456;2022-09-09T14:28:47;98819.16;;;20.56;52.92
70982;BME280;58640;51.320;9.456;2022-09-09T14:31:13;98811.13;;;20.71;51.79
70982;BME280;58640;51.320;9.456;2022-09-09T14:33:42;98816.66;;;20.76;51.43
70982;BME280;58640;51.320;9.456;2022-09-09T14:36:08;98813.66;;;20.78;50.49
70982;BME280;58640;51.320;9.456;2022-09-09T14:38:35;98815.44;;;20.89;50.11
70982;BME280;58640;51.320;9.456;2022-09-09T14:41:05;98813.66;;;20.78;50.62
70982;BME280;58640;51.320;9.456;2022-09-09T14:43:30;98812.66;;;20.84;50.12
70982;BME280;58640;51.320;9.456;2022-09-09T14:45:58;98814.00;;;20.81;50.95
70982;BME280;58640;51.320;9.456;2022-09-09T14:48:29;98817.44;;;20.93;51.09
70982;BME280;58640;51.320;9.456;2022-09-09T14:50:55;98817.28;;;21.05;52.71
70982;BME280;58640;51.320;9.456;2022-09-09T14:53:20;98820.28;;;21.03;51.76
70982;BME280;58640;51.320;9.456;2022-09-09T14:55:46;98817.16;;;20.95;52.27
70982;BME280;58640;51.320;9.456;2022-09-09T14:58:12;98812.72;;;21.10;52.56
70982;BME280;58640;51.320;9.456;2022-09-09T15:00:38;98815.50;;;21.15;51.24
70982;BME280;58640;51.320;9.456;2022-09-09T15:03:04;98812.25;;;21.18;51.01
70982;BME280;58640;51.320;9.456;2022-09-09T15:05:29;98806.09;;;21.06;50.52